createdAt,value
2018-07-12T00:01:18.640Z,10.03
2018-07-12T00:03:47.256Z,15.00
2018-07-12T00:06:16.041Z,12.53
2018-07-12T00:08:44.647Z,15.50
2018-07-12T00:11:13.332Z,15.30
2018-07-12T00:13:42.035Z,14.70
2018-07-12T00:16:10.687Z,13.17
2018-07-12T00:18:39.320Z,12.97
2018-07-12T00:21:08.270Z,12.30
2018-07-12T00:23:36.812Z,14.50
2018-07-12T00:26:05.447Z,13.53
2018-07-12T00:28:34.234Z,10.77
2018-07-12T00:31:02.931Z,12.30
2018-07-12T00:33:31.552Z,20.40
2018-07-12T00:36:00.273Z,11.43
2018-07-12T00:38:28.979Z,10.17
2018-07-12T00:40:57.566Z,14.73
2018-07-12T00:43:26.944Z,11.53
2018-07-12T00:45:55.578Z,12.60
2018-07-12T00:48:24.488Z,11.67
2018-07-12T00:50:53.041Z,16.53
2018-07-12T00:53:21.726Z,9.90
2018-07-12T00:55:50.670Z,9.33
2018-07-12T00:58:19.439Z,10.47
2018-07-12T01:00:48.151Z,9.53
2018-07-12T01:03:16.811Z,13.13
2018-07-12T01:05:45.472Z,13.40
2018-07-12T01:08:14.269Z,12.77
2018-07-12T01:10:42.983Z,12.20
2018-07-12T01:13:11.598Z,11.80
2018-07-12T01:15:40.320Z,10.97
2018-07-12T01:18:09.016Z,13.20
2018-07-12T01:20:38.013Z,12.50
2018-07-12T01:23:06.656Z,12.30
2018-07-12T01:25:35.366Z,10.53
2018-07-12T01:28:04.108Z,11.33
2018-07-12T01:30:32.844Z,14.13
2018-07-12T01:35:53.563Z,10.20
2018-07-12T01:38:22.247Z,14.40
2018-07-12T01:40:50.885Z,12.30
2018-07-12T01:43:19.564Z,18.17
2018-07-12T01:45:48.284Z,12.40
2018-07-12T01:48:17.193Z,13.90
2018-07-12T01:50:45.851Z,10.73
2018-07-12T01:53:14.561Z,13.47
2018-07-12T01:55:43.183Z,10.70
2018-07-12T01:58:11.971Z,12.60
2018-07-12T02:00:40.685Z,11.57
2018-07-12T02:03:09.315Z,12.00
2018-07-12T02:05:37.995Z,16.50
2018-07-12T02:08:06.679Z,14.63
2018-07-12T02:10:35.580Z,9.40
2018-07-12T02:13:04.138Z,12.50
2018-07-12T02:15:32.753Z,11.57
2018-07-12T02:18:01.381Z,11.40
2018-07-12T02:20:30.054Z,10.03
2018-07-12T02:22:58.955Z,14.13
2018-07-12T02:25:27.527Z,14.17
2018-07-12T02:27:56.212Z,15.27
2018-07-12T02:30:25.087Z,11.13
2018-07-12T02:32:53.748Z,10.87
2018-07-12T02:35:22.430Z,12.43
2018-07-12T02:37:51.346Z,11.60
2018-07-12T02:40:19.952Z,10.90
2018-07-12T02:42:48.656Z,9.77
2018-07-12T02:45:17.343Z,11.23
2018-07-12T02:47:45.976Z,10.60
2018-07-12T02:50:14.819Z,12.40
2018-07-12T02:52:43.695Z,10.07
2018-07-12T02:55:12.247Z,9.20
2018-07-12T02:57:41.130Z,8.50
2018-07-12T03:00:09.651Z,8.57
2018-07-12T03:02:38.341Z,7.90
2018-07-12T03:05:07.006Z,8.50
2018-07-12T03:07:36.471Z,8.63
2018-07-12T03:10:05.205Z,10.00
2018-07-12T03:12:33.832Z,8.43
2018-07-12T03:15:02.472Z,7.23
2018-07-12T03:17:31.168Z,7.97
2018-07-12T03:19:59.802Z,8.50
2018-07-12T03:22:28.491Z,6.90
2018-07-12T03:24:57.139Z,8.80
2018-07-12T03:27:25.795Z,7.27
2018-07-12T03:29:54.454Z,12.10
2018-07-12T03:32:23.305Z,9.87
2018-07-12T03:34:51.851Z,9.23
2018-07-12T03:37:20.456Z,8.43
2018-07-12T03:39:49.122Z,8.80
2018-07-12T03:42:17.848Z,8.50
2018-07-12T03:44:46.468Z,8.30
2018-07-12T03:47:15.116Z,8.20
2018-07-12T03:49:43.969Z,8.37
2018-07-12T03:52:12.865Z,9.27
2018-07-12T03:54:41.490Z,10.60
2018-07-12T03:57:10.158Z,9.10
2018-07-12T03:59:38.817Z,7.20
2018-07-12T04:02:07.418Z,7.07
2018-07-12T04:04:36.034Z,8.27
2018-07-12T04:07:04.915Z,8.10
2018-07-12T04:09:33.374Z,6.47
2018-07-12T04:12:02.027Z,7.50
2018-07-12T04:14:30.667Z,6.60
2018-07-12T04:16:59.318Z,6.60
2018-07-12T04:19:27.962Z,6.70
2018-07-12T04:21:56.872Z,6.37
2018-07-12T04:24:25.395Z,7.30
2018-07-12T04:26:54.039Z,6.80
2018-07-12T04:29:23.002Z,6.60
2018-07-12T04:31:51.463Z,5.80
2018-07-12T04:34:35.187Z,6.30
2018-07-12T04:37:03.836Z,5.17
2018-07-12T04:39:32.519Z,4.00
2018-07-12T04:42:01.175Z,4.33
2018-07-12T04:44:29.933Z,8.47
2018-07-12T04:46:58.650Z,5.10
2018-07-12T04:49:27.575Z,4.93
2018-07-12T04:51:57.264Z,3.63
2018-07-12T04:54:26.300Z,6.17
2018-07-12T04:56:54.952Z,4.13
2018-07-12T04:59:23.611Z,4.07
2018-07-12T05:01:52.526Z,4.40
2018-07-12T05:04:21.042Z,5.00
2018-07-12T05:06:50.033Z,4.30
2018-07-12T05:09:18.664Z,4.37
2018-07-12T05:11:47.587Z,4.23
2018-07-12T05:14:16.046Z,5.43
2018-07-12T05:16:44.710Z,4.13
2018-07-12T05:19:13.603Z,3.90
2018-07-12T05:21:42.106Z,3.00
2018-07-12T05:24:10.823Z,3.40
2018-07-12T05:26:39.425Z,2.90
2018-07-12T05:29:08.100Z,2.83
2018-07-12T05:31:36.778Z,3.20
2018-07-12T05:34:05.426Z,3.17
2018-07-12T05:36:55.681Z,3.17
2018-07-12T05:39:26.084Z,3.20
2018-07-12T05:41:56.527Z,3.57
2018-07-12T05:44:26.563Z,4.77
2018-07-12T05:46:56.744Z,4.10
2018-07-12T05:49:27.155Z,3.87
2018-07-12T05:51:57.672Z,3.50
2018-07-12T05:54:28.826Z,3.03
2018-07-12T05:56:59.130Z,2.60
2018-07-12T05:59:29.476Z,1.47
2018-07-12T06:02:14.518Z,1.60
2018-07-12T06:04:44.812Z,1.00
2018-07-12T06:07:19.355Z,1.70
2018-07-12T06:09:49.674Z,0.97
2018-07-12T06:12:20.583Z,0.80
2018-07-12T06:14:51.152Z,2.10
2018-07-12T06:17:21.563Z,0.83
2018-07-12T06:19:51.803Z,1.93
2018-07-12T06:22:22.230Z,0.73
2018-07-12T06:24:52.595Z,0.83
2018-07-12T06:27:22.596Z,1.13
2018-07-12T06:29:52.873Z,1.40
2018-07-12T06:32:23.305Z,0.67
2018-07-12T06:34:53.913Z,1.27
2018-07-12T06:37:24.230Z,0.60
2018-07-12T06:39:54.538Z,0.60
2018-07-12T06:42:25.452Z,0.70
2018-07-12T06:44:55.712Z,0.63
2018-07-12T06:47:26.130Z,0.80
2018-07-12T06:49:56.495Z,0.70
2018-07-12T06:52:26.861Z,0.80
2018-07-12T06:54:57.202Z,0.90
2018-07-12T06:57:27.537Z,0.80
2018-07-12T06:59:57.889Z,0.80
2018-07-12T07:02:28.312Z,3.43
2018-07-12T07:04:58.558Z,2.03
2018-07-12T07:07:28.713Z,0.93
2018-07-12T07:12:50.816Z,1.40
2018-07-12T07:15:21.092Z,2.03
2018-07-12T07:17:51.559Z,2.00
2018-07-12T07:20:21.839Z,1.60
2018-07-12T07:22:52.667Z,1.30
2018-07-12T07:25:22.983Z,1.20
2018-07-12T07:27:53.370Z,1.43
2018-07-12T07:30:23.889Z,1.83
2018-07-12T07:32:54.021Z,2.80
2018-07-12T07:35:24.267Z,1.80
2018-07-12T07:37:54.649Z,2.20
2018-07-12T07:40:24.853Z,2.10
2018-07-12T07:42:55.252Z,2.03
2018-07-12T07:45:25.355Z,2.73
2018-07-12T07:47:55.555Z,2.10
2018-07-12T07:50:26.183Z,2.33
2018-07-12T07:52:56.473Z,2.43
2018-07-12T07:55:27.075Z,2.43
2018-07-12T07:57:57.423Z,2.03
2018-07-12T08:00:27.964Z,2.40
2018-07-12T08:02:58.840Z,2.30
2018-07-12T08:05:29.210Z,2.50
2018-07-12T08:07:59.544Z,2.20
2018-07-12T08:10:30.427Z,2.47
2018-07-12T08:13:00.655Z,1.97
2018-07-12T08:15:30.768Z,2.00
2018-07-12T08:18:00.726Z,2.30
2018-07-12T08:20:31.086Z,2.20
2018-07-12T08:23:01.557Z,2.03
2018-07-12T08:25:31.945Z,1.77
2018-07-12T08:28:19.058Z,1.23
2018-07-12T08:30:49.532Z,1.77
2018-07-12T08:33:19.932Z,1.67
2018-07-12T08:35:50.840Z,3.50
2018-07-12T08:38:21.278Z,1.60
2018-07-12T08:40:51.411Z,2.60
2018-07-12T08:43:21.712Z,2.60
2018-07-12T08:45:51.760Z,2.67
2018-07-12T08:48:21.793Z,1.80
2018-07-12T08:50:51.946Z,2.47
2018-07-12T08:53:22.098Z,2.97
2018-07-12T08:55:52.108Z,2.33
2018-07-12T08:58:22.279Z,2.63
2018-07-12T09:00:52.440Z,1.93
2018-07-12T09:03:23.532Z,2.57
2018-07-12T09:05:53.453Z,2.53
2018-07-12T09:08:23.351Z,3.27
2018-07-12T09:10:53.440Z,2.10
2018-07-12T09:13:23.431Z,2.60
2018-07-12T09:15:53.619Z,2.17
2018-07-12T09:18:23.665Z,3.00
2018-07-12T09:20:53.672Z,3.43
2018-07-12T09:23:23.740Z,3.43
2018-07-12T09:25:53.860Z,7.60
2018-07-12T09:28:23.873Z,5.40
2018-07-12T09:30:53.716Z,7.80
2018-07-12T09:33:23.624Z,5.70
2018-07-12T09:35:54.054Z,6.10
2018-07-12T09:38:47.589Z,6.50
2018-07-12T09:41:18.065Z,5.90
2018-07-12T09:43:48.504Z,7.23
2018-07-12T09:46:18.471Z,7.07
2018-07-12T09:48:49.620Z,6.97
2018-07-12T09:51:19.581Z,11.33
2018-07-12T09:53:49.735Z,8.17
2018-07-12T09:56:19.627Z,8.37
2018-07-12T09:58:49.473Z,5.70
2018-07-12T10:01:25.896Z,6.23
2018-07-12T10:03:55.930Z,4.67
2018-07-12T10:06:26.039Z,6.43
2018-07-12T10:08:56.071Z,5.40
2018-07-12T10:12:31.122Z,4.60
2018-07-12T10:15:06.615Z,7.13
2018-07-12T10:17:37.646Z,5.03
2018-07-12T10:20:07.656Z,4.87
2018-07-12T10:22:37.744Z,4.83
2018-07-12T10:25:08.207Z,3.73
2018-07-12T10:27:38.872Z,4.70
2018-07-12T10:30:08.693Z,4.10
2018-07-12T10:32:38.750Z,6.03
2018-07-12T10:35:08.784Z,4.43
2018-07-12T10:37:39.617Z,4.57
2018-07-12T10:40:09.770Z,4.40
2018-07-12T10:42:40.035Z,7.63
2018-07-12T10:45:10.112Z,4.33
2018-07-12T10:47:39.911Z,5.10
2018-07-12T10:50:09.937Z,4.70
2018-07-12T10:52:40.114Z,4.10
2018-07-12T10:55:10.220Z,5.13
2018-07-12T10:57:41.239Z,4.07
2018-07-12T11:00:11.419Z,4.93
2018-07-12T11:02:41.484Z,7.70
2018-07-12T11:05:11.491Z,5.53
2018-07-12T11:07:41.639Z,4.87
2018-07-12T11:10:11.732Z,5.70
2018-07-12T11:12:41.740Z,4.20
2018-07-12T11:15:11.795Z,5.50
2018-07-12T11:17:41.901Z,4.73
2018-07-12T11:20:11.907Z,8.50
2018-07-12T11:22:42.036Z,3.83
2018-07-12T11:25:11.797Z,4.27
2018-07-12T11:27:41.803Z,4.70
2018-07-12T11:30:11.798Z,3.83
2018-07-12T11:32:41.843Z,4.93
2018-07-12T11:35:11.885Z,4.10
2018-07-12T11:37:41.874Z,4.77
2018-07-12T11:40:11.932Z,4.30
2018-07-12T11:42:41.978Z,7.30
2018-07-12T11:45:11.963Z,4.80
2018-07-12T11:47:42.047Z,8.37
2018-07-12T11:50:12.031Z,4.43
2018-07-12T11:52:42.063Z,4.37
2018-07-12T11:55:12.193Z,8.87
2018-07-12T11:57:42.231Z,5.50
2018-07-12T12:00:12.273Z,6.20
2018-07-12T12:02:42.271Z,4.53
2018-07-12T12:05:12.366Z,4.83
2018-07-12T12:07:42.415Z,7.30
2018-07-12T12:10:12.539Z,7.20
2018-07-12T12:12:42.659Z,8.87
2018-07-12T12:15:12.694Z,5.73
2018-07-12T12:17:42.740Z,6.13
2018-07-12T12:20:12.729Z,3.93
2018-07-12T12:22:42.798Z,4.13
2018-07-12T12:25:12.779Z,4.23
2018-07-12T12:27:42.816Z,7.60
2018-07-12T12:30:13.088Z,4.20
2018-07-12T12:32:43.518Z,3.87
2018-07-12T12:35:13.719Z,5.37
2018-07-12T12:37:43.828Z,3.90
2018-07-12T12:40:13.896Z,4.17
2018-07-12T12:42:44.185Z,4.40
2018-07-12T12:45:14.002Z,6.40
2018-07-12T12:47:43.979Z,4.37
2018-07-12T12:50:14.006Z,6.70
2018-07-12T12:52:44.141Z,4.73
2018-07-12T12:55:14.179Z,4.33
2018-07-12T12:57:44.268Z,6.50
2018-07-12T13:00:14.393Z,9.83
2018-07-12T13:02:44.427Z,4.87
2018-07-12T13:05:14.414Z,4.40
2018-07-12T13:07:44.509Z,5.53
2018-07-12T13:10:14.555Z,10.50
2018-07-12T13:12:44.676Z,7.67
2018-07-12T13:15:14.692Z,3.00
2018-07-12T13:17:44.748Z,3.47
2018-07-12T13:20:14.826Z,5.87
2018-07-12T13:22:44.807Z,5.70
2018-07-12T13:25:14.799Z,3.77
2018-07-12T13:27:44.814Z,4.90
2018-07-12T13:30:14.805Z,4.30
2018-07-12T13:32:44.610Z,4.50
2018-07-12T13:35:14.332Z,3.57
2018-07-12T13:37:44.308Z,6.80
2018-07-12T13:40:14.296Z,2.93
2018-07-12T13:42:44.297Z,4.07
2018-07-12T13:45:14.340Z,3.30
2018-07-12T13:47:44.404Z,2.83
2018-07-12T13:50:14.441Z,3.27
2018-07-12T13:52:44.462Z,3.80
2018-07-12T13:55:14.524Z,3.27
2018-07-12T13:57:44.546Z,8.27
2018-07-12T14:00:14.609Z,3.13
2018-07-12T14:02:44.640Z,3.67
2018-07-12T14:05:14.675Z,3.00
2018-07-12T14:07:44.691Z,6.33
2018-07-12T14:10:14.793Z,13.73
2018-07-12T14:12:44.861Z,7.67
2018-07-12T14:15:14.872Z,3.47
2018-07-12T14:17:44.962Z,4.17
2018-07-12T14:20:15.016Z,4.10
2018-07-12T14:22:45.040Z,4.73
2018-07-12T14:25:15.100Z,5.33
2018-07-12T14:27:45.200Z,3.40
2018-07-12T14:30:15.187Z,3.20
2018-07-12T14:32:45.200Z,4.87
2018-07-12T14:35:17.175Z,6.43
2018-07-12T14:37:47.268Z,4.87
2018-07-12T14:40:17.279Z,6.80
2018-07-12T14:42:47.431Z,4.63
2018-07-12T14:45:17.812Z,3.90
2018-07-12T14:47:47.819Z,6.90
2018-07-12T14:50:17.833Z,3.80
2018-07-12T14:52:47.599Z,4.20
2018-07-12T14:55:18.334Z,3.30
2018-07-12T14:57:48.246Z,3.50
2018-07-12T15:00:18.263Z,4.43
2018-07-12T15:02:48.290Z,6.73
2018-07-12T15:05:21.998Z,4.07
2018-07-12T15:07:52.543Z,3.70
2018-07-12T15:10:22.846Z,4.20
2018-07-12T15:12:52.846Z,3.53
2018-07-12T15:15:22.854Z,3.60
2018-07-12T15:17:52.896Z,6.93
2018-07-12T15:20:22.980Z,3.70
2018-07-12T15:22:52.790Z,11.20
2018-07-12T15:25:22.763Z,3.93
2018-07-12T15:27:52.841Z,3.43
2018-07-12T15:30:22.769Z,5.40
2018-07-12T15:32:52.750Z,3.70
2018-07-12T15:35:24.932Z,4.00
2018-07-12T15:37:54.999Z,7.10
2018-07-12T15:40:25.117Z,5.00
2018-07-12T15:42:55.181Z,4.10
2018-07-12T15:45:25.151Z,3.93
2018-07-12T15:47:55.151Z,3.90
2018-07-12T15:50:26.562Z,7.97
2018-07-12T15:52:56.669Z,4.87
2018-07-12T15:55:26.481Z,3.47
2018-07-12T15:57:56.361Z,5.57
2018-07-12T16:00:26.519Z,7.50
2018-07-12T16:02:56.519Z,4.43
2018-07-12T16:05:26.631Z,4.60
2018-07-12T16:07:56.439Z,8.80
2018-07-12T16:10:26.330Z,4.17
2018-07-12T16:12:56.360Z,5.33
2018-07-12T16:15:26.699Z,4.30
2018-07-12T16:17:56.770Z,3.70
2018-07-12T16:20:26.814Z,4.73
2018-07-12T16:22:56.791Z,6.20
2018-07-12T16:25:26.811Z,4.83
2018-07-12T16:27:56.852Z,4.17
2018-07-12T16:30:26.848Z,5.87
2018-07-12T16:32:56.925Z,6.13
2018-07-12T16:35:26.971Z,5.37
2018-07-12T16:37:57.018Z,4.27
2018-07-12T16:40:27.026Z,4.57
2018-07-12T16:42:57.038Z,6.27
2018-07-12T16:45:27.142Z,7.70
2018-07-12T16:47:57.114Z,5.20
2018-07-12T16:50:27.165Z,5.30
2018-07-12T16:52:57.179Z,5.07
2018-07-12T16:55:27.241Z,5.47
2018-07-12T16:57:57.260Z,5.23
2018-07-12T17:00:27.474Z,4.90
2018-07-12T17:02:57.294Z,4.67
2018-07-12T17:05:27.212Z,4.63
2018-07-12T17:07:57.369Z,4.30
2018-07-12T17:10:27.402Z,4.10
2018-07-12T17:12:57.383Z,7.03
2018-07-12T17:15:27.482Z,6.53
2018-07-12T17:17:57.488Z,3.90
2018-07-12T17:20:27.297Z,4.67
2018-07-12T17:22:57.186Z,5.03
2018-07-12T17:25:26.995Z,4.50
2018-07-12T17:27:56.940Z,5.60
2018-07-12T17:30:26.984Z,4.40
2018-07-12T17:32:57.033Z,8.97
2018-07-12T17:35:27.016Z,5.30
2018-07-12T17:37:57.002Z,5.33
2018-07-12T17:40:27.015Z,5.47
2018-07-12T17:42:57.030Z,5.93
2018-07-12T17:45:26.927Z,9.90
2018-07-12T17:47:56.910Z,11.40
2018-07-12T17:50:26.989Z,6.80
2018-07-12T17:52:57.002Z,7.60
2018-07-12T17:55:26.784Z,7.03
2018-07-12T17:57:59.687Z,6.37
2018-07-12T18:00:29.748Z,8.17
2018-07-12T18:02:59.845Z,8.63
2018-07-12T18:05:29.972Z,7.47
2018-07-12T18:08:00.078Z,7.03
2018-07-12T18:10:30.050Z,8.77
2018-07-12T18:13:00.071Z,8.53
2018-07-12T18:15:30.113Z,7.77
2018-07-12T18:18:00.144Z,7.77
2018-07-12T18:20:30.191Z,6.47
2018-07-12T18:23:00.273Z,7.87
2018-07-12T18:25:30.260Z,7.90
2018-07-12T18:28:00.259Z,8.17
2018-07-12T18:30:30.284Z,8.93
2018-07-12T18:33:00.336Z,12.43
2018-07-12T18:35:30.607Z,7.57
2018-07-12T18:38:00.806Z,7.70
2018-07-12T18:40:30.838Z,9.63
2018-07-12T18:43:00.916Z,7.30
2018-07-12T18:45:31.225Z,8.00
2018-07-12T18:48:01.315Z,7.20
2018-07-12T18:50:31.435Z,8.47
2018-07-12T18:53:01.266Z,8.30
2018-07-12T18:55:31.265Z,7.73
2018-07-12T18:58:01.318Z,9.57
2018-07-12T19:00:31.407Z,7.67
2018-07-12T19:03:01.423Z,8.00
2018-07-12T19:05:31.559Z,9.00
2018-07-12T19:08:01.565Z,10.50
2018-07-12T19:10:31.684Z,9.40
2018-07-12T19:13:01.715Z,8.77
2018-07-12T19:15:31.865Z,8.80
2018-07-12T19:18:01.914Z,8.83
2018-07-12T19:20:31.943Z,7.33
2018-07-12T19:23:01.946Z,7.27
2018-07-12T19:25:31.926Z,15.60
2018-07-12T19:28:02.063Z,7.43
2018-07-12T19:30:32.147Z,7.53
2018-07-12T19:33:02.189Z,8.57
2018-07-12T19:35:32.261Z,17.17
2018-07-12T19:38:02.091Z,7.30
2018-07-12T19:40:31.785Z,7.43
2018-07-12T19:43:01.779Z,7.87
2018-07-12T19:45:31.579Z,8.50
2018-07-12T19:48:01.446Z,7.60
2018-07-12T19:50:31.787Z,7.37
2018-07-12T19:53:01.803Z,7.30
2018-07-12T19:55:31.905Z,7.23
2018-07-12T19:58:01.893Z,9.67
2018-07-12T20:00:31.887Z,8.50
2018-07-12T20:03:01.932Z,12.13
2018-07-12T20:05:31.780Z,8.10
2018-07-12T20:08:01.644Z,8.70
2018-07-12T20:10:32.446Z,8.97
2018-07-12T20:13:02.471Z,8.10
2018-07-12T20:15:32.472Z,8.33
2018-07-12T20:18:02.495Z,8.17
2018-07-12T20:20:32.523Z,8.53
2018-07-12T20:23:02.576Z,10.10
2018-07-12T20:25:33.484Z,8.63
2018-07-12T20:28:03.327Z,7.63
2018-07-12T20:33:00.809Z,8.53
2018-07-12T20:35:30.887Z,8.50
2018-07-12T20:38:00.667Z,13.70
2018-07-12T20:40:30.550Z,11.80
2018-07-12T20:43:00.659Z,13.63
2018-07-12T20:45:30.718Z,10.23
2018-07-12T20:48:00.772Z,9.60
2018-07-12T20:50:30.840Z,9.83
2018-07-12T20:53:00.875Z,15.77
2018-07-12T20:55:30.892Z,11.73
2018-07-12T20:58:00.903Z,11.70
2018-07-12T21:00:30.804Z,11.83
2018-07-12T21:03:00.746Z,10.90
2018-07-12T21:05:30.728Z,12.70
2018-07-12T21:08:00.765Z,10.03
2018-07-12T21:10:30.565Z,9.77
2018-07-12T21:13:00.492Z,12.03
2018-07-12T21:15:30.537Z,9.63
2018-07-12T21:18:00.551Z,14.07
2018-07-12T21:20:30.606Z,13.87
2018-07-12T21:23:00.613Z,11.20
2018-07-12T21:25:30.646Z,11.20
2018-07-12T21:28:00.664Z,10.83
2018-07-12T21:30:30.650Z,13.73
2018-07-12T21:33:00.637Z,20.37
2018-07-12T21:35:30.673Z,10.70
2018-07-12T21:38:00.695Z,11.93
2018-07-12T21:40:30.768Z,14.47
2018-07-12T21:43:00.835Z,10.30
2018-07-12T21:45:30.948Z,11.23
2018-07-12T21:48:00.969Z,11.77
2018-07-12T21:50:31.853Z,10.63
2018-07-12T21:53:01.774Z,12.73
2018-07-12T21:55:31.937Z,14.17
2018-07-12T21:58:01.968Z,10.60
2018-07-12T22:00:32.925Z,13.20
2018-07-12T22:03:02.938Z,14.00
2018-07-12T22:05:33.073Z,9.53
2018-07-12T22:08:12.789Z,10.60
2018-07-12T22:10:43.822Z,19.53
2018-07-12T22:13:14.399Z,9.30
2018-07-12T22:15:44.468Z,9.97
2018-07-12T22:18:14.458Z,9.03
2018-07-12T22:20:44.470Z,11.97
2018-07-12T22:23:14.457Z,9.93
2018-07-12T22:25:44.491Z,10.50
2018-07-12T22:28:14.520Z,8.83
2018-07-12T22:30:44.695Z,10.00
2018-07-12T22:33:14.728Z,11.20
2018-07-12T22:35:44.802Z,10.67
2018-07-12T22:38:14.831Z,10.03
2018-07-12T22:40:45.154Z,9.90
2018-07-12T22:43:15.180Z,12.87
2018-07-12T22:45:45.904Z,13.47
2018-07-12T22:48:15.889Z,10.13
2018-07-12T22:50:45.892Z,9.57
2018-07-12T22:53:15.928Z,14.20
2018-07-12T22:55:45.960Z,13.90
2018-07-12T22:58:15.971Z,9.33
2018-07-12T23:00:46.003Z,12.23
2018-07-12T23:03:15.981Z,9.30
2018-07-12T23:05:46.019Z,10.10
2018-07-12T23:08:16.083Z,10.07
2018-07-12T23:10:46.056Z,12.97
2018-07-12T23:13:16.101Z,11.63
2018-07-12T23:15:46.135Z,8.90
2018-07-12T23:18:16.123Z,9.07
2018-07-12T23:20:45.890Z,9.33
2018-07-12T23:23:15.803Z,14.60
2018-07-12T23:25:45.929Z,9.80
2018-07-12T23:28:15.967Z,11.87
2018-07-12T23:30:46.063Z,10.10
2018-07-12T23:33:16.143Z,10.37
2018-07-12T23:35:46.163Z,10.17
2018-07-12T23:38:16.341Z,12.63
2018-07-12T23:40:46.378Z,9.93
2018-07-12T23:43:16.342Z,10.50
2018-07-12T23:45:47.000Z,9.43
2018-07-12T23:48:16.971Z,9.30
2018-07-12T23:50:47.080Z,9.63
2018-07-12T23:53:17.042Z,16.43
2018-07-12T23:55:47.072Z,9.23
2018-07-12T23:58:17.139Z,8.70
